Time;durP1;ratioP1;P1;durP2;ratioP2;P2;SDS_P1;SDS_P2;PMS_P1;PMS_P2;Temp;Humidity;BMP_temperature;BMP_pressure;BME280_temperature;BME280_humidity;BME280_pressure;Samples;Min_cycle;Max_cycle;Signal;HPM_P1;HPM_P2
2022/04/27 00:00:27;;;;;;;0.70;0.60;;;;;;;27.22;30.56;96834.88;5014783;28;21309;-30
2022/04/27 00:02:52;;;;;;;0.65;0.50;;;;;;;27.21;30.38;96834.03;5009746;28;20044;-34
2022/04/27 00:05:18;;;;;;;1.17;0.50;;;;;;;27.23;30.31;96833.97;5010422;28;20051;-31
2022/04/27 00:07:43;;;;;;;1.45;0.60;;;;;;;27.21;30.33;96833.19;5011988;28;20034;-31
2022/04/27 00:10:09;;;;;;;1.05;0.63;;;;;;;27.22;30.37;96832.25;5011075;28;20032;-31
2022/04/27 00:12:34;;;;;;;0.60;0.50;;;;;;;27.21;30.41;96827.91;4994692;28;20848;-32
2022/04/27 00:15:00;;;;;;;1.40;0.43;;;;;;;27.20;30.35;96821.84;5008084;28;20034;-29
2022/04/27 00:17:25;;;;;;;0.93;0.60;;;;;;;27.21;30.43;96827.91;5012400;28;20039;-31
2022/04/27 00:19:50;;;;;;;1.17;0.60;;;;;;;27.18;30.35;96826.31;5010568;28;20117;-30
2022/04/27 00:22:16;;;;;;;0.47;0.47;;;;;;;27.21;30.41;96827.91;5007726;28;20102;-32
2022/04/27 00:24:41;;;;;;;1.05;0.50;;;;;;;27.20;30.36;96834.97;5008602;28;20844;-30
2022/04/27 00:27:07;;;;;;;1.15;0.50;;;;;;;27.20;30.38;96828.88;5012874;28;20101;-31
2022/04/27 00:29:32;;;;;;;0.50;0.50;;;;;;;27.20;30.40;96828.88;5007506;28;20040;-30
2022/04/27 00:31:58;;;;;;;0.73;0.57;;;;;;;27.20;30.29;96820.97;5011678;28;20570;-29
2022/04/27 00:34:23;;;;;;;0.70;0.52;;;;;;;27.20;30.36;96826.22;5023845;28;20125;-30
2022/04/27 00:36:49;;;;;;;1.02;0.70;;;;;;;27.19;30.23;96829.81;5056662;28;20036;-30
2022/04/27 00:39:14;;;;;;;1.00;0.50;;;;;;;27.19;30.24;96825.38;5053814;28;20032;-29
2022/04/27 00:41:58;;;;;;;0.90;0.35;;;;;;;27.19;30.25;96824.53;5055298;28;20036;-29
2022/04/27 00:44:30;;;;;;;2.88;0.60;;;;;;;27.19;30.19;96819.28;5052528;28;20067;-29
2022/04/27 00:46:55;;;;;;;1.17;0.60;;;;;;;27.19;30.30;96829.81;5050224;28;20024;-29
2022/04/27 00:49:21;;;;;;;1.00;0.50;;;;;;;27.18;30.26;96825.47;5052365;28;20394;-30
2022/04/27 00:51:48;;;;;;;1.10;0.65;;;;;;;27.17;30.20;96831.66;5052524;28;20040;-30
2022/04/27 00:54:13;;;;;;;1.85;0.60;;;;;;;27.18;30.18;96833.34;5023276;28;20039;-29
2022/04/27 00:56:38;;;;;;;0.73;0.57;;;;;;;27.18;30.39;96833.34;5052543;28;20021;-29
2022/04/27 00:59:04;;;;;;;0.63;0.40;;;;;;;27.17;30.21;96832.53;5037093;28;20518;-30
2022/04/27 01:01:29;;;;;;;0.70;0.50;;;;;;;27.17;30.13;96832.53;5050926;28;20964;-27
2022/04/27 01:03:56;;;;;;;0.50;0.40;;;;;;;27.17;30.05;96836.94;5054042;28;20020;-28
2022/04/27 01:06:21;;;;;;;1.20;0.70;;;;;;;27.16;30.35;96836.09;5049713;28;20028;-35
2022/04/27 01:08:47;;;;;;;0.85;0.65;;;;;;;27.15;30.15;96834.38;5050196;28;20027;-27
2022/04/27 01:11:13;;;;;;;1.15;0.50;;;;;;;27.17;30.15;96831.66;5053155;28;20058;-31
2022/04/27 01:13:38;;;;;;;0.77;0.57;;;;;;;27.16;30.24;96833.47;5052613;28;20134;-29
2022/04/27 01:16:05;;;;;;;0.93;0.52;;;;;;;27.16;30.29;96829.97;5055189;28;20900;-28
2022/04/27 01:18:30;;;;;;;0.50;0.50;;;;;;;27.15;30.19;96836.19;5056976;28;20025;-28
2022/04/27 01:20:56;;;;;;;0.30;0.30;;;;;;;27.15;30.30;96833.56;5056114;28;20035;-29
2022/04/27 01:23:21;;;;;;;0.50;0.50;;;;;;;27.15;30.18;96834.38;5057959;28;20214;-28
2022/04/27 01:25:52;;;;;;;0.52;0.50;;;;;;;27.15;30.14;96833.56;5055258;28;20536;-32
2022/04/27 01:28:19;;;;;;;2.13;0.77;;;;;;;27.15;30.16;96833.56;5056843;28;20135;-28
2022/04/27 01:30:45;;;;;;;0.50;0.40;;;;;;;27.15;30.24;96833.56;5055974;28;20477;-29
2022/04/27 01:33:11;;;;;;;0.40;0.40;;;;;;;27.13;30.28;96837.13;5055358;28;20028;-29
2022/04/27 01:35:37;;;;;;;0.50;0.50;;;;;;;27.14;30.26;96843.22;5054896;28;20036;-29
2022/04/27 01:38:03;;;;;;;0.52;0.50;;;;;;;27.14;30.11;96832.69;5058169;28;20036;-27
2022/04/27 01:40:29;;;;;;;0.57;0.57;;;;;;;27.13;30.21;96837.13;5053695;28;20043;-27
2022/04/27 01:42:54;;;;;;;0.60;0.47;;;;;;;27.13;30.23;96842.38;5055720;28;20111;-28
2022/04/27 01:45:20;;;;;;;0.40;0.40;;;;;;;27.12;30.10;96839.84;5055246;28;20067;-28
2022/04/27 01:47:45;;;;;;;0.75;0.50;;;;;;;27.12;30.26;96840.66;5055037;28;20081;-28
2022/04/27 01:50:10;;;;;;;0.70;0.47;;;;;;;27.12;30.20;96851.19;5056211;28;20027;-28
2022/04/27 01:55:20;;;;;;;0.88;0.40;;;;;;;27.11;30.16;96844.25;5060021;28;20043;-28
2022/04/27 01:57:45;;;;;;;0.57;0.50;;;;;;;27.12;30.18;96845.09;5058974;28;20024;-29
2022/04/27 02:00:11;;;;;;;1.83;0.40;;;;;;;27.11;30.19;96838.97;5037430;28;20038;-29
2022/04/27 02:02:36;;;;;;;0.65;0.60;;;;;;;27.11;30.26;96849.50;5052551;28;20020;-28
2022/04/27 02:05:04;;;;;;;0.60;0.40;;;;;;;27.11;30.34;96852.13;5052080;28;20474;-29
2022/04/27 02:07:30;;;;;;;0.50;0.40;;;;;;;27.10;30.21;96850.44;5053756;28;20024;-33
2022/04/27 02:09:55;;;;;;;1.25;0.45;;;;;;;27.10;30.23;96847.81;5058120;28;20028;-28
2022/04/27 02:12:20;;;;;;;0.50;0.40;;;;;;;27.11;30.16;96849.50;5054676;28;20024;-29
2022/04/27 02:14:46;;;;;;;0.82;0.60;;;;;;;27.10;30.21;96853.06;5057405;28;20494;-28
2022/04/27 02:17:11;;;;;;;1.85;0.70;;;;;;;27.10;30.24;96855.72;5055368;28;20093;-29
2022/04/27 02:19:37;;;;;;;1.02;0.50;;;;;;;27.09;30.25;96854.03;5053512;28;20477;-30
2022/04/27 02:22:03;;;;;;;0.35;0.35;;;;;;;27.10;30.22;96857.47;5053569;28;20117;-30
2022/04/27 02:24:29;;;;;;;2.72;0.45;;;;;;;27.09;30.24;96859.28;5054600;28;20730;-29
2022/04/27 02:26:54;;;;;;;0.93;0.40;;;;;;;27.09;30.12;96864.53;5052049;28;20549;-29
2022/04/27 02:29:21;;;;;;;0.65;0.40;;;;;;;27.09;30.18;96861.06;5052558;28;20028;-28
2022/04/27 02:31:47;;;;;;;0.68;0.50;;;;;;;27.08;30.26;96854.94;5057096;28;20109;-29
2022/04/27 02:34:12;;;;;;;0.50;0.40;;;;;;;27.08;30.20;96860.19;5050787;28;20040;-29
2022/04/27 02:36:37;;;;;;;0.40;0.40;;;;;;;27.08;30.11;96869.88;5048633;28;20036;-30
2022/04/27 02:39:03;;;;;;;0.88;0.50;;;;;;;27.07;30.19;96858.50;5060697;28;20051;-29
2022/04/27 02:41:28;;;;;;;0.50;0.45;;;;;;;27.08;30.14;96862.81;5058103;28;20028;-30
2022/04/27 02:43:55;;;;;;;0.47;0.30;;;;;;;27.07;30.13;96871.66;5052552;28;20028;-32
2022/04/27 02:46:20;;;;;;;3.38;0.60;;;;;;;27.07;30.15;96863.75;5050190;28;20805;-30
2022/04/27 02:54:15;;;;;;;0.60;0.60;;;;;;;27.07;30.16;96866.41;5055715;28;20647;-29
2022/04/27 02:56:40;;;;;;;1.30;0.60;;;;;;;27.06;30.15;96877.84;5054146;28;20035;-30
2022/04/27 02:59:05;;;;;;;1.30;0.60;;;;;;;27.06;30.07;96875.22;5056616;28;20765;-30
2022/04/27 03:01:31;;;;;;;0.50;0.50;;;;;;;27.06;30.09;96875.22;5055126;28;20027;-32
2022/04/27 03:03:56;;;;;;;1.35;0.65;;;;;;;27.05;30.06;96863.03;5056645;28;20533;-29
2022/04/27 03:06:22;;;;;;;0.77;0.50;;;;;;;27.05;30.05;96865.66;5055838;28;20036;-30
2022/04/27 03:08:47;;;;;;;0.88;0.40;;;;;;;27.06;30.19;96867.34;5051255;28;20032;-29
2022/04/27 03:11:12;;;;;;;0.60;0.50;;;;;;;27.06;30.04;96877.00;5051817;28;20028;-30
2022/04/27 03:13:38;;;;;;;0.40;0.40;;;;;;;27.05;30.16;96865.66;5060023;28;20519;-30
2022/04/27 03:16:03;;;;;;;0.50;0.50;;;;;;;27.04;30.17;96869.19;5057334;28;20028;-29
2022/04/27 03:18:29;;;;;;;0.60;0.60;;;;;;;27.05;30.09;96864.78;5053954;28;20028;-29
2022/04/27 03:20:54;;;;;;;2.08;0.52;;;;;;;27.05;30.18;96870.91;5052325;28;20032;-30
2022/04/27 03:23:20;;;;;;;1.05;0.68;;;;;;;27.04;30.21;96874.44;5055832;28;20411;-29
2022/04/27 03:25:45;;;;;;;0.35;0.35;;;;;;;27.04;30.05;96873.63;5052188;28;20067;-29
2022/04/27 03:28:12;;;;;;;1.08;0.50;;;;;;;27.03;30.21;96870.13;5062261;28;20044;-31
2022/04/27 03:30:37;;;;;;;0.77;0.38;;;;;;;27.02;30.25;96865.81;5060194;28;20547;-31
2022/04/27 03:33:02;;;;;;;0.75;0.40;;;;;;;27.03;30.21;96875.41;5061193;28;20832;-29
2022/04/27 03:35:28;;;;;;;0.63;0.55;;;;;;;27.03;30.15;96878.03;5060901;28;20028;-30
2022/04/27 03:37:55;;;;;;;0.52;0.50;;;;;;;27.03;30.16;96878.03;5062912;28;20119;-30
2022/04/27 03:40:21;;;;;;;0.50;0.40;;;;;;;27.02;30.11;96881.59;5061266;28;20036;-30
2022/04/27 03:42:50;;;;;;;1.17;0.55;;;;;;;27.03;30.11;96878.03;5062455;28;20027;-30
2022/04/27 03:45:15;;;;;;;0.60;0.45;;;;;;;27.01;30.16;96874.66;5062506;28;20028;-30
2022/04/27 03:47:41;;;;;;;0.57;0.47;;;;;;;27.02;30.12;96886.84;5065457;28;20028;-30
2022/04/27 03:50:06;;;;;;;0.70;0.50;;;;;;;27.02;30.11;96886.00;5061714;28;20035;-29
2022/04/27 03:52:32;;;;;;;0.63;0.50;;;;;;;27.02;30.30;96886.00;5059554;28;20028;-29
2022/04/27 03:55:01;;;;;;;0.28;0.28;;;;;;;27.00;30.10;96893.97;5063071;28;20039;-30
2022/04/27 03:57:29;;;;;;;0.98;0.63;;;;;;;27.02;30.16;96907.91;5060135;28;20032;-29
2022/04/27 03:59:54;;;;;;;0.63;0.50;;;;;;;27.01;30.20;96906.22;5051394;28;20142;-29
2022/04/27 04:02:20;;;;;;;0.55;0.55;;;;;;;27.00;30.15;96910.59;5052311;28;20028;-30
2022/04/27 04:04:45;;;;;;;0.43;0.43;;;;;;;27.00;30.06;96907.97;5055719;28;20024;-28
2022/04/27 04:07:12;;;;;;;0.70;0.50;;;;;;;27.00;30.17;96901.84;5052529;28;20868;-28
2022/04/27 04:09:38;;;;;;;0.95;0.47;;;;;;;27.01;30.27;96908.84;5049921;28;20032;-30
2022/04/27 04:12:04;;;;;;;0.50;0.50;;;;;;;27.01;30.23;96911.47;5052823;28;20024;-31
2022/04/27 04:14:30;;;;;;;0.30;0.30;;;;;;;27.00;30.15;96915.00;5054830;28;21663;-29
2022/04/27 04:16:55;;;;;;;0.50;0.50;;;;;;;27.00;30.23;96915.00;5053355;28;20040;-29
2022/04/27 04:19:20;;;;;;;0.50;0.50;;;;;;;27.00;30.03;96915.88;5048927;28;20082;-29
2022/04/27 04:21:46;;;;;;;0.70;0.70;;;;;;;27.00;30.16;96915.00;5053496;28;20089;-30
2022/04/27 04:24:11;;;;;;;0.38;0.38;;;;;;;26.99;30.15;96918.59;5058431;28;20115;-29
2022/04/27 04:29:21;;;;;;;1.63;0.60;;;;;;;27.00;30.04;96930.78;5061659;28;20038;-30
2022/04/27 04:31:46;;;;;;;0.57;0.50;;;;;;;26.98;30.10;96928.28;5060039;28;20024;-29
2022/04/27 04:34:12;;;;;;;0.38;0.38;;;;;;;26.98;30.25;96935.31;5062728;28;20032;-29
2022/04/27 04:36:37;;;;;;;0.43;0.43;;;;;;;26.98;30.03;96943.19;5060363;28;20545;-29
2022/04/27 04:39:03;;;;;;;1.52;0.50;;;;;;;26.99;30.16;96944.88;5060279;28;20043;-30
2022/04/27 04:41:28;;;;;;;0.57;0.47;;;;;;;26.97;30.18;96946.75;5059564;28;20085;-30
2022/04/27 04:43:53;;;;;;;0.50;0.50;;;;;;;26.97;30.18;96946.75;5061013;28;20028;-30
2022/04/27 04:46:19;;;;;;;1.17;0.57;;;;;;;26.97;30.16;96952.03;5060540;28;20036;-29
2022/04/27 04:48:44;;;;;;;0.57;0.40;;;;;;;26.96;30.11;96956.41;5063739;28;20035;-30
2022/04/27 04:51:09;;;;;;;0.77;0.40;;;;;;;26.96;30.23;96964.31;5068530;28;20028;-30
2022/04/27 04:53:35;;;;;;;0.30;0.25;;;;;;;26.96;30.18;96966.09;5062386;28;20089;-30
2022/04/27 04:56:00;;;;;;;0.77;0.50;;;;;;;26.97;30.26;96970.44;5064617;28;20081;-31
2022/04/27 04:58:26;;;;;;;0.50;0.50;;;;;;;26.96;30.36;96972.19;5066682;28;20058;-28
2022/04/27 05:00:51;;;;;;;0.55;0.40;;;;;;;26.96;29.93;96966.94;5061080;28;20040;-28
2022/04/27 05:03:17;;;;;;;0.40;0.40;;;;;;;26.96;30.13;96972.19;5063951;28;20331;-29
2022/04/27 05:05:42;;;;;;;0.40;0.40;;;;;;;26.95;30.24;96967.03;5065659;28;20039;-29
2022/04/27 05:08:09;;;;;;;0.55;0.40;;;;;;;26.95;30.13;96969.66;5065300;28;20119;-31
2022/04/27 05:10:35;;;;;;;0.30;0.30;;;;;;;26.96;30.05;96968.75;5060421;28;20031;-29
2022/04/27 05:13:01;;;;;;;0.45;0.40;;;;;;;26.94;30.04;96967.94;5042995;28;20028;-30
2022/04/27 05:15:26;;;;;;;0.52;0.50;;;;;;;26.95;30.05;96977.53;5064953;28;20661;-29
2022/04/27 05:17:51;;;;;;;1.42;0.60;;;;;;;26.95;29.98;96972.28;5062037;28;20081;-30
2022/04/27 05:20:17;;;;;;;0.55;0.40;;;;;;;26.95;30.30;96985.44;5064162;28;20032;-28
2022/04/27 05:22:42;;;;;;;0.80;0.35;;;;;;;26.95;29.97;96985.44;5068041;28;20137;-28
2022/04/27 05:25:08;;;;;;;0.38;0.35;;;;;;;26.94;29.92;96984.59;5063085;28;20028;-31
2022/04/27 05:27:37;;;;;;;0.55;0.45;;;;;;;-148.56;29.92;96984.59;5059010;28;20115;-30
2022/04/27 05:32:47;;;;;;;1.02;0.50;;;;;;;26.94;30.06;96999.47;5052582;28;20039;-30
2022/04/27 05:35:13;;;;;;;0.43;0.43;;;;;;;26.94;30.10;96999.47;5054004;28;20028;-30
2022/04/27 05:37:39;;;;;;;0.60;0.43;;;;;;;26.93;30.19;96997.78;5059415;28;20147;-29
2022/04/27 05:40:05;;;;;;;0.60;0.40;;;;;;;26.93;30.30;96993.38;5055340;28;20035;-30
2022/04/27 05:42:31;;;;;;;0.40;0.40;;;;;;;26.93;30.33;97005.69;5058049;28;20032;-30
2022/04/27 05:44:57;;;;;;;0.57;0.40;;;;;;;26.92;30.04;97004.00;5056508;28;20405;-30
2022/04/27 05:47:23;;;;;;;0.82;0.52;;;;;;;26.92;30.04;97006.63;5057054;28;20024;-32
2022/04/27 05:49:50;;;;;;;2.90;0.40;;;;;;;26.92;30.17;97017.97;5055489;28;20059;-29
2022/04/27 05:52:16;;;;;;;0.50;0.50;;;;;;;26.92;30.07;97022.41;5057084;28;20077;-29
2022/04/27 05:54:41;;;;;;;0.50;0.50;;;;;;;26.92;30.08;97022.41;5053975;28;21461;-27
2022/04/27 05:57:06;;;;;;;1.50;0.60;;;;;;;26.92;30.31;97032.91;5058734;28;20036;-29
2022/04/27 05:59:32;;;;;;;0.75;0.50;;;;;;;26.91;30.25;97026.81;5055527;28;20547;-29
2022/04/27 06:01:57;;;;;;;0.68;0.60;;;;;;;26.92;30.18;97022.41;5054598;28;20024;-27
2022/04/27 06:04:23;;;;;;;0.57;0.50;;;;;;;26.91;30.10;97023.31;5057282;28;20028;-29
2022/04/27 06:06:48;;;;;;;0.63;0.60;;;;;;;26.91;30.11;97033.81;5056257;28;20529;-31
2022/04/27 06:09:13;;;;;;;0.68;0.50;;;;;;;26.90;29.92;97030.38;5058527;28;20020;-29
2022/04/27 06:11:39;;;;;;;1.15;0.50;;;;;;;26.90;30.04;97029.50;5054165;28;22098;-30
2022/04/27 06:14:04;;;;;;;0.43;0.43;;;;;;;26.89;30.06;97033.94;5053869;28;20032;-30
2022/04/27 06:16:32;;;;;;;1.33;0.75;;;;;;;26.90;30.07;97040.88;5048960;28;20040;-30
2022/04/27 06:18:58;;;;;;;5.97;1.55;;;;;;;26.90;30.26;97040.03;5051726;28;20132;-29
2022/04/27 06:21:23;;;;;;;1.52;0.80;;;;;;;26.89;30.11;97044.47;5052924;28;20024;-30
2022/04/27 06:23:49;;;;;;;5.38;0.70;;;;;;;26.88;30.15;97043.59;5056690;28;20035;-31
2022/04/27 06:26:14;;;;;;;0.75;0.75;;;;;;;26.89;30.04;97049.72;5053943;28;20035;-31
2022/04/27 06:28:40;;;;;;;4.03;0.93;;;;;;;26.88;30.16;97038.34;5048822;28;20016;-30
2022/04/27 06:31:05;;;;;;;1.40;1.20;;;;;;;26.88;30.21;97051.47;5050620;28;20122;-29
2022/04/27 06:33:31;;;;;;;2.03;1.20;;;;;;;26.89;30.02;97052.34;5055715;28;20043;-29
2022/04/27 06:35:56;;;;;;;2.60;1.17;;;;;;;26.88;30.11;97058.50;5053899;28;20032;-31
2022/04/27 06:38:22;;;;;;;1.90;0.93;;;;;;;26.88;30.50;97054.13;5057263;28;20750;-31
2022/04/27 06:40:47;;;;;;;1.25;0.90;;;;;;;26.88;29.99;97059.38;5056427;28;20036;-30
2022/04/27 06:43:12;;;;;;;2.78;1.20;;;;;;;26.88;30.47;97062.00;5054638;28;20042;-31
2022/04/27 06:45:38;;;;;;;1.38;0.90;;;;;;;26.87;30.15;97062.94;5053444;28;20032;-31
2022/04/27 06:48:03;;;;;;;2.53;1.45;;;;;;;26.88;30.10;97072.53;5045232;28;20842;-30
2022/04/27 06:50:29;;;;;;;3.05;1.52;;;;;;;26.87;30.33;97075.22;5051454;28;20029;-30
2022/04/27 06:52:58;;;;;;;2.88;1.23;;;;;;;26.87;29.98;97085.75;5057237;28;20028;-31
2022/04/27 06:55:24;;;;;;;1.73;1.10;;;;;;;26.88;30.10;97074.28;5036462;28;20581;-31
2022/04/27 06:57:49;;;;;;;2.13;1.10;;;;;;;26.86;30.32;97079.63;5057373;28;20043;-30
2022/04/27 07:00:15;;;;;;;4.13;1.30;;;;;;;26.86;30.22;97084.88;5048471;28;20975;-30
2022/04/27 07:02:40;;;;;;;2.05;1.20;;;;;;;26.87;30.01;97083.97;5052143;28;20035;-32
2022/04/27 07:05:09;;;;;;;5.18;1.52;;;;;;;26.85;30.26;97085.81;5057003;28;20041;-30
2022/04/27 07:07:34;;;;;;;2.67;1.13;;;;;;;26.86;30.06;97092.78;5021136;28;20129;-30
2022/04/27 07:10:00;;;;;;;2.95;1.45;;;;;;;26.85;30.26;97096.34;5052582;28;21003;-35
2022/04/27 07:12:26;;;;;;;1.38;1.10;;;;;;;26.86;30.24;97098.03;5053050;28;20514;-30
2022/04/27 07:14:51;;;;;;;3.55;1.17;;;;;;;26.86;30.19;97094.56;5052494;28;20078;-30
2022/04/27 07:17:17;;;;;;;1.67;1.10;;;;;;;26.85;30.15;97101.59;5053088;28;20054;-31
2022/04/27 07:19:42;;;;;;;1.85;1.15;;;;;;;26.86;30.18;97103.28;5050196;28;20790;-30
2022/04/27 07:22:08;;;;;;;2.97;1.73;;;;;;;26.86;30.26;97103.28;5050199;28;20040;-29
2022/04/27 07:24:33;;;;;;;3.63;1.90;;;;;;;26.87;30.38;97110.28;5046745;28;20032;-30
2022/04/27 07:26:59;;;;;;;1.95;1.50;;;;;;;26.86;30.27;97108.53;5048220;28;20028;-31
2022/04/27 07:29:24;;;;;;;1.77;1.60;;;;;;;26.85;30.25;97112.13;5046996;28;20361;-31
2022/04/27 07:31:50;;;;;;;4.55;1.27;;;;;;;26.87;30.21;97109.41;5048423;28;20043;-31
2022/04/27 07:34:16;;;;;;;1.80;1.50;;;;;;;26.86;30.30;97119.06;5052316;28;20028;-30
2022/04/27 07:36:41;;;;;;;5.13;1.77;;;;;;;26.86;30.25;97116.44;5053211;28;20395;-30
2022/04/27 07:39:07;;;;;;;3.75;1.80;;;;;;;26.85;30.30;97112.13;5051037;28;20020;-29
2022/04/27 07:41:33;;;;;;;3.15;1.63;;;;;;;26.86;30.33;97113.81;5050281;28;20157;-30
2022/04/27 07:43:58;;;;;;;2.38;1.60;;;;;;;26.86;30.13;97112.97;5049010;28;20098;-30
2022/04/27 07:46:24;;;;;;;2.20;1.40;;;;;;;26.87;30.46;97120.78;5048803;28;20449;-31
2022/04/27 07:48:51;;;;;;;2.83;1.60;;;;;;;26.88;30.31;97111.09;5054864;28;21661;-32
2022/04/27 07:51:16;;;;;;;2.90;1.40;;;;;;;26.87;30.45;97118.16;5053297;28;20035;-29
2022/04/27 07:53:42;;;;;;;4.97;1.42;;;;;;;26.88;30.43;97125.09;5063463;28;20052;-31
2022/04/27 07:56:07;;;;;;;2.75;1.42;;;;;;;26.91;30.34;97136.38;5062923;28;20032;-33
2022/04/27 07:58:34;;;;;;;4.50;1.55;;;;;;;26.91;30.36;97125.88;5067318;28;20856;-31
2022/04/27 08:01:00;;;;;;;2.67;1.60;;;;;;;26.91;30.43;97139.00;5061756;28;20034;-35
2022/04/27 08:03:25;;;;;;;2.80;1.60;;;;;;;26.92;30.26;97143.38;5055435;28;20028;-29
2022/04/27 08:05:51;;;;;;;6.15;1.58;;;;;;;26.91;30.41;97147.75;5061865;28;20036;-30
2022/04/27 08:08:16;;;;;;;1.58;1.15;;;;;;;26.92;30.52;97146.00;5059701;28;20029;-30
2022/04/27 08:10:41;;;;;;;4.95;1.58;;;;;;;26.91;30.34;97147.75;5058117;28;20037;-29
2022/04/27 08:13:07;;;;;;;4.85;2.50;;;;;;;26.92;30.58;97152.09;5057240;28;20036;-31
2022/04/27 08:15:32;;;;;;;14.68;6.97;;;;;;;26.86;29.41;97153.25;5057437;28;20023;-31
2022/04/27 08:17:59;;;;;;;19.13;7.40;;;;;;;26.73;29.23;97149.56;5054176;28;20602;-29
2022/04/27 08:23:12;;;;;;;8.85;6.40;;;;;;;26.36;28.30;97147.03;5045840;28;22079;-29
2022/04/27 08:25:38;;;;;;;6.00;4.47;;;;;;;26.23;28.57;97149.38;5052148;28;20027;-29
2022/04/27 08:28:06;;;;;;;6.15;3.95;;;;;;;26.16;28.84;97150.63;5050530;28;20042;-31
2022/04/27 08:30:39;;;;;;;5.93;2.90;;;;;;;26.12;28.87;97151.69;5036043;28;20056;-28
2022/04/27 08:33:05;;;;;;;4.13;2.78;;;;;;;26.12;28.96;97159.56;5034749;28;20028;-27
2022/04/27 08:35:34;;;;;;;3.45;2.67;;;;;;;26.13;28.80;97156.00;5031891;28;21097;-29
2022/04/27 08:38:00;;;;;;;2.38;2.00;;;;;;;26.15;29.06;97154.16;5031647;28;20028;-29
2022/04/27 08:40:26;;;;;;;2.58;2.20;;;;;;;26.16;29.35;97155.88;5034028;28;20032;-28
2022/04/27 08:42:52;;;;;;;1.80;1.55;;;;;;;26.20;29.47;97160.06;5028513;28;20112;-29
2022/04/27 08:45:17;;;;;;;2.92;2.08;;;;;;;26.23;29.37;97162.50;5036004;28;20028;-29
2022/04/27 08:47:45;;;;;;;3.97;1.70;;;;;;;26.27;29.35;97168.50;5031189;28;20627;-31
2022/04/27 08:50:14;;;;;;;2.15;1.67;;;;;;;26.29;29.23;97164.88;5038015;28;20144;-29
2022/04/27 08:52:40;;;;;;;2.50;1.67;;;;;;;26.32;29.21;97156.81;5047338;28;20020;-31
2022/04/27 08:55:06;;;;;;;6.90;2.30;;;;;;;26.35;29.53;97177.72;5037081;28;20025;-28
2022/04/27 08:57:31;;;;;;;5.28;1.77;;;;;;;26.38;29.59;97163.56;5035458;28;20725;-29
2022/04/27 08:59:57;;;;;;;14.93;3.70;;;;;;;26.41;29.45;97166.03;5036989;28;20797;-29
2022/04/27 09:02:26;;;;;;;11.48;4.50;;;;;;;26.44;29.51;97165.03;5034957;28;20036;-29
2022/04/27 09:05:09;;;;;;;8.27;4.32;;;;;;;26.47;29.66;97172.78;5037315;28;20422;-29
2022/04/27 09:07:57;;;;;;;13.15;3.58;;;;;;;26.49;29.63;97168.28;5037630;28;20039;-29
2022/04/27 09:10:24;;;;;;;14.23;3.47;;;;;;;26.49;29.63;97168.28;5033541;28;20044;-29
2022/04/27 09:12:50;;;;;;;9.25;3.30;;;;;;;26.53;29.49;97174.22;5020896;28;20040;-31
2022/04/27 09:15:17;;;;;;;8.90;3.33;;;;;;;26.55;29.95;97172.38;5043069;28;20059;-30
2022/04/27 09:23:24;;;;;;;6.43;2.90;;;;;;;26.60;29.83;97175.63;5045977;28;20086;-30
2022/04/27 09:25:55;;;;;;;6.93;2.85;;;;;;;26.59;30.10;97174.78;5050051;28;20044;-29
2022/04/27 09:28:27;;;;;;;5.85;3.00;;;;;;;26.60;30.10;97176.50;5046298;28;20043;-31
2022/04/27 09:30:52;;;;;;;;;;;;;;;26.62;30.19;97173.78;5045320;28;20044;-30
2022/04/27 09:33:30;;;;;;;5.53;2.60;;;;;;;26.65;29.85;97178.03;5043186;28;19937;-33
2022/04/27 09:35:56;;;;;;;6.45;4.50;;;;;;;26.65;29.25;97178.03;5036873;28;20044;-29
2022/04/27 09:38:21;;;;;;;6.13;4.03;;;;;;;26.63;28.87;97174.63;5016500;28;20032;-30
2022/04/27 09:40:47;;;;;;;4.50;3.58;;;;;;;26.59;28.08;97174.78;5035799;28;20368;-32
2022/04/27 09:43:16;;;;;;;5.60;3.80;;;;;;;26.55;27.27;97173.22;5029128;28;20541;-31
2022/04/27 09:45:44;;;;;;;6.85;3.75;;;;;;;26.51;27.25;97170.84;5035213;28;20059;-28
2022/04/27 09:48:17;;;;;;;4.38;3.60;;;;;;;26.50;26.57;97169.97;5038491;28;20546;-29
2022/04/27 09:50:49;;;;;;;8.77;3.67;;;;;;;26.51;26.46;97166.44;5036471;28;20039;-29
2022/04/27 09:53:15;;;;;;;4.03;3.58;;;;;;;26.53;26.29;97169.84;5037076;28;20037;-32
2022/04/27 09:56:01;;;;;;;4.18;3.72;;;;;;;26.57;25.60;97166.13;5027064;28;20722;-30
2022/04/27 09:58:27;;;;;;;5.03;3.83;;;;;;;26.64;25.77;97173.69;5019309;28;20130;-34
2022/04/27 10:00:56;;;;;;;7.05;3.42;;;;;;;26.70;25.93;97160.25;4987681;28;20353;-31
2022/04/27 10:03:21;;;;;;;5.22;3.53;;;;;;;26.77;25.89;97166.88;5000438;28;20207;-31
2022/04/27 10:05:47;;;;;;;4.15;3.60;;;;;;;26.84;26.33;97167.41;5004645;28;20032;-31
2022/04/27 10:08:13;;;;;;;4.53;3.45;;;;;;;26.90;26.34;97174.13;5023538;28;20033;-30
2022/04/27 10:10:39;;;;;;;3.83;3.10;;;;;;;26.95;26.14;97164.25;5010642;28;20491;-33
2022/04/27 10:13:08;;;;;;;5.40;3.85;;;;;;;27.02;25.78;97170.03;5008950;28;20094;-32
2022/04/27 10:15:34;;;;;;;5.13;3.47;;;;;;;27.05;25.87;97170.75;5000588;28;20087;-30
2022/04/27 10:18:00;;;;;;;6.95;3.33;;;;;;;27.07;26.01;97171.50;4998409;28;20029;-31
2022/04/27 10:20:32;;;;;;;4.72;3.33;;;;;;;27.09;25.76;97174.06;5023310;28;20040;-31
2022/04/27 10:23:16;;;;;;;;;;;;;;;27.12;26.02;97166.03;5028459;28;20075;-29
2022/04/27 10:25:42;;;;;;;4.50;1.98;;;;;;;27.15;26.93;97170.28;5018988;28;20373;-31
2022/04/27 10:28:16;;;;;;;1.98;1.45;;;;;;;27.21;27.07;97172.56;5003673;28;20021;-29
2022/04/27 10:30:42;;;;;;;2.30;1.60;;;;;;;27.26;27.27;97175.78;5019553;28;20063;-31
2022/04/27 10:33:08;;;;;;;1.73;1.33;;;;;;;27.34;27.20;97181.50;5027139;28;20017;-32
2022/04/27 10:35:33;;;;;;;6.05;1.85;;;;;;;27.42;27.39;97173.19;4989939;28;20036;-29
2022/04/27 10:38:02;;;;;;;2.50;1.60;;;;;;;27.50;27.41;97171.00;5026189;28;20032;-30
2022/04/27 10:40:29;;;;;;;2.45;1.80;;;;;;;27.59;27.04;97180.19;5026362;28;20060;-30
2022/04/27 10:43:00;;;;;;;2.35;1.50;;;;;;;27.65;27.03;97174.59;5032007;28;20507;-33
2022/04/27 10:45:25;;;;;;;3.13;1.50;;;;;;;27.73;27.31;97176.81;5012149;28;20036;-34
2022/04/27 10:47:51;;;;;;;2.38;1.48;;;;;;;27.79;27.48;97175.63;4986509;28;20056;-33
2022/04/27 10:50:17;;;;;;;4.40;1.40;;;;;;;27.86;27.32;97177.00;5029681;28;20900;-30
2022/04/27 10:52:43;;;;;;;2.67;1.65;;;;;;;27.92;27.11;97181.09;5032357;28;20078;-31
2022/04/27 10:55:43;;;;;;;3.13;1.30;;;;;;;28.00;27.25;97178.00;5028918;28;20804;-32
2022/04/27 10:58:24;;;;;;;2.05;1.40;;;;;;;28.06;27.03;97185.56;5031251;28;20032;-32
2022/04/27 11:00:58;;;;;;;1.40;1.30;;;;;;;28.13;27.33;97188.69;5031855;28;20041;-31
2022/04/27 11:03:38;;;;;;;2.13;1.33;;;;;;;28.21;27.16;97185.63;5017140;28;20640;-30
2022/04/27 11:06:08;;;;;;;1.70;1.30;;;;;;;28.28;27.08;97182.59;5004155;28;20651;-29
2022/04/27 11:09:03;;;;;;;1.25;1.15;;;;;;;28.40;27.05;97180.19;5023520;28;20086;-32
2022/04/27 11:11:30;;;;;;;1.25;1.02;;;;;;;28.48;26.98;97192.91;5016415;28;20044;-32
2022/04/27 11:14:00;;;;;;;1.52;1.30;;;;;;;28.56;26.79;97185.41;5017560;28;20029;-31
2022/04/27 11:16:26;;;;;;;1.33;1.20;;;;;;;28.62;26.54;97190.34;5017544;28;20060;-31
2022/04/27 11:18:56;;;;;;;1.52;1.20;;;;;;;28.69;26.91;97186.38;5000925;28;20025;-33
2022/04/27 11:21:26;;;;;;;1.80;1.30;;;;;;;28.76;26.62;97194.78;5019914;28;20025;-32
2022/04/27 11:23:52;;;;;;;2.25;1.23;;;;;;;28.82;26.48;97189.16;5020463;28;20061;-33
2022/04/27 11:26:17;;;;;;;1.50;1.20;;;;;;;28.89;26.46;97194.03;5021190;28;20122;-31
2022/04/27 11:28:43;;;;;;;1.90;1.33;;;;;;;28.97;26.58;97193.63;5005692;28;20650;-31
2022/04/27 11:31:09;;;;;;;2.65;1.33;;;;;;;29.04;26.48;97194.94;5022210;28;20145;-31
2022/04/27 11:33:40;;;;;;;1.85;1.20;;;;;;;29.08;26.39;97205.25;5017804;28;20041;-31
2022/04/27 11:36:05;;;;;;;1.42;1.00;;;;;;;29.14;26.61;97195.25;5021771;28;20041;-29
2022/04/27 11:38:37;;;;;;;1.65;0.95;;;;;;;29.19;26.52;97194.03;5020873;28;20048;-33
2022/04/27 11:41:23;;;;;;;1.50;1.20;;;;;;;29.24;26.35;97192.88;5021918;28;20033;-31
2022/04/27 11:43:49;;;;;;;2.17;1.20;;;;;;;29.29;26.29;97194.31;5020971;28;20765;-30
2022/04/27 11:46:15;;;;;;;2.35;1.20;;;;;;;29.35;26.18;97201.00;5019617;28;20276;-30
2022/04/27 11:48:46;;;;;;;1.90;1.20;;;;;;;29.38;26.33;97203.47;5013471;28;21268;-31
2022/04/27 11:51:11;;;;;;;1.70;1.13;;;;;;;29.40;26.05;97206.84;5024218;28;20025;-31
2022/04/27 11:53:47;;;;;;;1.48;1.17;;;;;;;29.41;26.05;97205.88;5023562;28;20047;-30